sensor_id;sensor_type;location;lat;lon;timestamp;P1;durP1;ratioP1;P2;durP2;ratioP2
14933;SDS011;7560;51.364;12.384;2023-05-24T00:02:43;11.98;;;3.10;;
14933;SDS011;7560;51.364;12.384;2023-05-24T00:07:45;8.55;;;2.40;;
14933;SDS011;7560;51.364;12.384;2023-05-24T00:12:47;12.27;;;2.90;;
14933;SDS011;7560;51.364;12.384;2023-05-24T00:17:49;7.35;;;2.67;;
14933;SDS011;7560;51.364;12.384;2023-05-24T00:22:51;12.75;;;3.00;;
14933;SDS011;7560;51.364;12.384;2023-05-24T00:27:52;7.43;;;3.03;;
14933;SDS011;7560;51.364;12.384;2023-05-24T00:32:54;13.00;;;2.88;;
14933;SDS011;7560;51.364;12.384;2023-05-24T00:37:56;8.25;;;2.65;;
14933;SDS011;7560;51.364;12.384;2023-05-24T00:42:58;9.70;;;2.20;;
14933;SDS011;7560;51.364;12.384;2023-05-24T00:48:00;10.60;;;2.50;;
14933;SDS011;7560;51.364;12.384;2023-05-24T00:53:02;8.18;;;2.63;;
14933;SDS011;7560;51.364;12.384;2023-05-24T00:58:04;8.50;;;2.75;;
14933;SDS011;7560;51.364;12.384;2023-05-24T01:03:06;10.88;;;2.70;;
14933;SDS011;7560;51.364;12.384;2023-05-24T01:08:11;9.98;;;2.90;;
14933;SDS011;7560;51.364;12.384;2023-05-24T01:13:24;14.13;;;3.35;;
14933;SDS011;7560;51.364;12.384;2023-05-24T01:18:32;10.98;;;2.63;;
14933;SDS011;7560;51.364;12.384;2023-05-24T01:29:13;12.50;;;3.20;;
14933;SDS011;7560;51.364;12.384;2023-05-24T01:34:16;7.20;;;2.22;;
14933;SDS011;7560;51.364;12.384;2023-05-24T01:39:18;8.45;;;2.15;;
14933;SDS011;7560;51.364;12.384;2023-05-24T01:44:26;10.63;;;2.38;;
14933;SDS011;7560;51.364;12.384;2023-05-24T01:49:36;12.73;;;2.17;;
14933;SDS011;7560;51.364;12.384;2023-05-24T01:54:47;9.60;;;2.13;;
14933;SDS011;7560;51.364;12.384;2023-05-24T01:59:54;10.02;;;2.67;;
14933;SDS011;7560;51.364;12.384;2023-05-24T02:04:57;7.55;;;2.22;;
14933;SDS011;7560;51.364;12.384;2023-05-24T02:09:59;10.05;;;2.10;;
14933;SDS011;7560;51.364;12.384;2023-05-24T02:15:01;11.18;;;2.13;;
14933;SDS011;7560;51.364;12.384;2023-05-24T02:20:02;12.23;;;2.35;;
14933;SDS011;7560;51.364;12.384;2023-05-24T02:25:05;10.02;;;2.40;;
14933;SDS011;7560;51.364;12.384;2023-05-24T02:30:08;5.55;;;2.63;;
14933;SDS011;7560;51.364;12.384;2023-05-24T02:35:11;11.88;;;2.50;;
14933;SDS011;7560;51.364;12.384;2023-05-24T02:40:12;9.65;;;2.60;;
14933;SDS011;7560;51.364;12.384;2023-05-24T02:45:14;8.10;;;2.33;;
14933;SDS011;7560;51.364;12.384;2023-05-24T02:50:16;14.85;;;3.05;;
14933;SDS011;7560;51.364;12.384;2023-05-24T02:55:18;10.13;;;2.70;;
14933;SDS011;7560;51.364;12.384;2023-05-24T03:00:20;9.32;;;2.50;;
14933;SDS011;7560;51.364;12.384;2023-05-24T03:05:22;11.05;;;2.70;;
14933;SDS011;7560;51.364;12.384;2023-05-24T03:10:23;11.38;;;2.38;;
14933;SDS011;7560;51.364;12.384;2023-05-24T03:15:25;12.40;;;2.55;;
14933;SDS011;7560;51.364;12.384;2023-05-24T03:20:27;10.20;;;2.80;;
14933;SDS011;7560;51.364;12.384;2023-05-24T03:25:29;11.18;;;2.58;;
14933;SDS011;7560;51.364;12.384;2023-05-24T03:30:31;9.68;;;2.63;;
14933;SDS011;7560;51.364;12.384;2023-05-24T03:35:33;7.07;;;3.00;;
14933;SDS011;7560;51.364;12.384;2023-05-24T03:40:35;8.82;;;3.33;;
14933;SDS011;7560;51.364;12.384;2023-05-24T03:45:37;15.82;;;2.97;;
14933;SDS011;7560;51.364;12.384;2023-05-24T03:50:40;13.13;;;2.70;;
14933;SDS011;7560;51.364;12.384;2023-05-24T03:55:42;11.43;;;3.15;;
14933;SDS011;7560;51.364;12.384;2023-05-24T04:00:44;15.65;;;3.20;;
14933;SDS011;7560;51.364;12.384;2023-05-24T04:05:46;11.13;;;2.92;;
14933;SDS011;7560;51.364;12.384;2023-05-24T04:10:48;14.10;;;3.13;;
14933;SDS011;7560;51.364;12.384;2023-05-24T04:15:49;10.52;;;3.25;;
14933;SDS011;7560;51.364;12.384;2023-05-24T04:20:51;10.48;;;3.42;;
14933;SDS011;7560;51.364;12.384;2023-05-24T04:25:53;9.35;;;2.60;;
14933;SDS011;7560;51.364;12.384;2023-05-24T04:30:55;12.10;;;3.25;;
14933;SDS011;7560;51.364;12.384;2023-05-24T04:35:57;13.00;;;3.30;;
14933;SDS011;7560;51.364;12.384;2023-05-24T04:41:01;12.98;;;3.58;;
14933;SDS011;7560;51.364;12.384;2023-05-24T04:46:03;16.85;;;3.35;;
14933;SDS011;7560;51.364;12.384;2023-05-24T04:51:09;11.32;;;3.72;;
14933;SDS011;7560;51.364;12.384;2023-05-24T04:56:10;9.38;;;3.10;;
14933;SDS011;7560;51.364;12.384;2023-05-24T05:01:15;13.15;;;3.45;;
14933;SDS011;7560;51.364;12.384;2023-05-24T05:06:17;15.43;;;3.65;;
14933;SDS011;7560;51.364;12.384;2023-05-24T05:11:19;12.38;;;2.85;;
14933;SDS011;7560;51.364;12.384;2023-05-24T05:16:21;12.70;;;2.92;;
14933;SDS011;7560;51.364;12.384;2023-05-24T05:21:23;14.23;;;3.28;;
14933;SDS011;7560;51.364;12.384;2023-05-24T05:26:25;11.52;;;3.42;;
14933;SDS011;7560;51.364;12.384;2023-05-24T05:31:28;17.33;;;3.65;;
14933;SDS011;7560;51.364;12.384;2023-05-24T05:36:31;16.27;;;3.35;;
14933;SDS011;7560;51.364;12.384;2023-05-24T05:41:33;12.93;;;3.28;;
14933;SDS011;7560;51.364;12.384;2023-05-24T05:46:35;17.02;;;3.25;;
14933;SDS011;7560;51.364;12.384;2023-05-24T05:51:37;14.55;;;3.72;;
14933;SDS011;7560;51.364;12.384;2023-05-24T05:56:39;13.52;;;3.22;;
14933;SDS011;7560;51.364;12.384;2023-05-24T06:01:48;13.27;;;3.13;;
14933;SDS011;7560;51.364;12.384;2023-05-24T06:06:50;16.33;;;3.22;;
14933;SDS011;7560;51.364;12.384;2023-05-24T06:11:52;12.52;;;3.13;;
14933;SDS011;7560;51.364;12.384;2023-05-24T06:16:54;12.23;;;3.28;;
14933;SDS011;7560;51.364;12.384;2023-05-24T06:21:58;15.48;;;2.95;;
14933;SDS011;7560;51.364;12.384;2023-05-24T06:27:00;12.60;;;3.70;;
14933;SDS011;7560;51.364;12.384;2023-05-24T06:32:05;14.40;;;3.22;;
14933;SDS011;7560;51.364;12.384;2023-05-24T06:37:07;12.60;;;3.08;;
14933;SDS011;7560;51.364;12.384;2023-05-24T06:42:10;9.68;;;2.78;;
14933;SDS011;7560;51.364;12.384;2023-05-24T06:47:12;15.10;;;3.20;;
14933;SDS011;7560;51.364;12.384;2023-05-24T06:52:14;14.30;;;3.17;;
14933;SDS011;7560;51.364;12.384;2023-05-24T06:57:16;11.82;;;3.13;;
14933;SDS011;7560;51.364;12.384;2023-05-24T07:02:18;15.55;;;3.30;;
14933;SDS011;7560;51.364;12.384;2023-05-24T07:07:24;14.40;;;3.63;;
14933;SDS011;7560;51.364;12.384;2023-05-24T07:12:26;12.98;;;3.13;;
14933;SDS011;7560;51.364;12.384;2023-05-24T07:17:28;14.90;;;3.97;;
14933;SDS011;7560;51.364;12.384;2023-05-24T07:22:30;11.77;;;3.25;;
14933;SDS011;7560;51.364;12.384;2023-05-24T07:27:32;9.88;;;3.33;;
14933;SDS011;7560;51.364;12.384;2023-05-24T07:32:34;17.73;;;3.33;;
14933;SDS011;7560;51.364;12.384;2023-05-24T07:37:36;14.10;;;3.13;;
14933;SDS011;7560;51.364;12.384;2023-05-24T07:42:37;11.10;;;3.47;;
14933;SDS011;7560;51.364;12.384;2023-05-24T07:47:39;16.13;;;3.67;;
14933;SDS011;7560;51.364;12.384;2023-05-24T07:52:41;15.00;;;3.28;;
14933;SDS011;7560;51.364;12.384;2023-05-24T07:57:43;15.30;;;4.45;;
14933;SDS011;7560;51.364;12.384;2023-05-24T08:02:45;15.73;;;4.15;;
14933;SDS011;7560;51.364;12.384;2023-05-24T08:07:47;12.38;;;3.33;;
14933;SDS011;7560;51.364;12.384;2023-05-24T08:12:49;12.15;;;3.58;;
14933;SDS011;7560;51.364;12.384;2023-05-24T08:17:54;16.52;;;3.78;;
14933;SDS011;7560;51.364;12.384;2023-05-24T08:22:57;13.55;;;3.85;;
14933;SDS011;7560;51.364;12.384;2023-05-24T08:27:59;14.77;;;4.20;;
14933;SDS011;7560;51.364;12.384;2023-05-24T08:33:01;14.70;;;3.70;;
14933;SDS011;7560;51.364;12.384;2023-05-24T08:38:03;17.17;;;3.55;;
14933;SDS011;7560;51.364;12.384;2023-05-24T08:43:05;15.80;;;4.03;;
14933;SDS011;7560;51.364;12.384;2023-05-24T08:48:12;10.60;;;3.65;;
14933;SDS011;7560;51.364;12.384;2023-05-24T08:53:14;13.20;;;3.67;;
14933;SDS011;7560;51.364;12.384;2023-05-24T08:58:17;12.35;;;3.33;;
14933;SDS011;7560;51.364;12.384;2023-05-24T09:03:19;9.75;;;3.22;;
14933;SDS011;7560;51.364;12.384;2023-05-24T09:08:21;11.35;;;3.17;;
14933;SDS011;7560;51.364;12.384;2023-05-24T09:13:24;12.50;;;3.40;;
14933;SDS011;7560;51.364;12.384;2023-05-24T09:18:28;13.35;;;3.65;;
14933;SDS011;7560;51.364;12.384;2023-05-24T09:23:29;11.73;;;3.78;;
14933;SDS011;7560;51.364;12.384;2023-05-24T09:28:32;14.52;;;3.75;;
14933;SDS011;7560;51.364;12.384;2023-05-24T09:33:34;15.57;;;3.50;;
14933;SDS011;7560;51.364;12.384;2023-05-24T09:38:36;21.35;;;4.63;;
14933;SDS011;7560;51.364;12.384;2023-05-24T09:43:47;10.43;;;4.03;;
14933;SDS011;7560;51.364;12.384;2023-05-24T09:48:56;14.15;;;3.70;;
14933;SDS011;7560;51.364;12.384;2023-05-24T09:54:04;14.38;;;3.75;;
14933;SDS011;7560;51.364;12.384;2023-05-24T09:59:06;11.40;;;3.92;;
14933;SDS011;7560;51.364;12.384;2023-05-24T10:04:09;10.07;;;4.03;;
14933;SDS011;7560;51.364;12.384;2023-05-24T10:09:10;12.27;;;3.45;;
14933;SDS011;7560;51.364;12.384;2023-05-24T10:14:14;12.00;;;3.88;;
14933;SDS011;7560;51.364;12.384;2023-05-24T10:19:18;10.65;;;3.88;;
14933;SDS011;7560;51.364;12.384;2023-05-24T10:24:21;11.70;;;4.03;;
14933;SDS011;7560;51.364;12.384;2023-05-24T10:29:35;11.85;;;3.97;;
14933;SDS011;7560;51.364;12.384;2023-05-24T10:34:46;10.10;;;3.60;;
14933;SDS011;7560;51.364;12.384;2023-05-24T10:39:49;11.45;;;3.80;;
14933;SDS011;7560;51.364;12.384;2023-05-24T10:44:50;11.02;;;3.78;;
14933;SDS011;7560;51.364;12.384;2023-05-24T10:49:56;14.93;;;5.05;;
14933;SDS011;7560;51.364;12.384;2023-05-24T10:55:00;13.23;;;4.03;;
14933;SDS011;7560;51.364;12.384;2023-05-24T11:06:02;11.35;;;4.20;;
14933;SDS011;7560;51.364;12.384;2023-05-24T11:11:06;10.35;;;3.63;;
14933;SDS011;7560;51.364;12.384;2023-05-24T11:16:37;8.95;;;3.38;;
14933;SDS011;7560;51.364;12.384;2023-05-24T11:21:42;10.20;;;3.60;;
14933;SDS011;7560;51.364;12.384;2023-05-24T11:26:48;9.52;;;3.22;;
14933;SDS011;7560;51.364;12.384;2023-05-24T11:31:52;14.02;;;3.22;;
14933;SDS011;7560;51.364;12.384;2023-05-24T11:36:55;9.65;;;2.58;;
14933;SDS011;7560;51.364;12.384;2023-05-24T11:41:57;8.18;;;2.60;;
14933;SDS011;7560;51.364;12.384;2023-05-24T11:47:00;9.73;;;3.05;;
14933;SDS011;7560;51.364;12.384;2023-05-24T11:52:03;10.48;;;5.07;;
14933;SDS011;7560;51.364;12.384;2023-05-24T11:57:05;9.55;;;3.40;;
14933;SDS011;7560;51.364;12.384;2023-05-24T12:02:07;7.53;;;3.05;;
14933;SDS011;7560;51.364;12.384;2023-05-24T12:07:11;13.82;;;3.63;;
14933;SDS011;7560;51.364;12.384;2023-05-24T12:12:13;8.88;;;3.47;;
14933;SDS011;7560;51.364;12.384;2023-05-24T12:17:16;8.82;;;3.72;;
14933;SDS011;7560;51.364;12.384;2023-05-24T12:22:17;8.82;;;3.55;;
14933;SDS011;7560;51.364;12.384;2023-05-24T12:27:19;8.73;;;3.05;;
14933;SDS011;7560;51.364;12.384;2023-05-24T12:32:27;12.57;;;3.85;;
14933;SDS011;7560;51.364;12.384;2023-05-24T12:37:29;7.03;;;3.10;;
14933;SDS011;7560;51.364;12.384;2023-05-24T12:42:31;9.77;;;3.50;;
14933;SDS011;7560;51.364;12.384;2023-05-24T12:47:33;10.38;;;3.17;;
14933;SDS011;7560;51.364;12.384;2023-05-24T12:52:35;8.98;;;3.35;;
14933;SDS011;7560;51.364;12.384;2023-05-24T12:57:37;12.23;;;3.70;;
14933;SDS011;7560;51.364;12.384;2023-05-24T13:02:39;7.28;;;3.10;;
14933;SDS011;7560;51.364;12.384;2023-05-24T13:07:42;8.73;;;3.35;;
14933;SDS011;7560;51.364;12.384;2023-05-24T13:12:45;5.18;;;2.97;;
14933;SDS011;7560;51.364;12.384;2023-05-24T13:17:47;9.07;;;3.03;;
14933;SDS011;7560;51.364;12.384;2023-05-24T13:22:49;9.20;;;3.90;;
14933;SDS011;7560;51.364;12.384;2023-05-24T13:27:51;9.13;;;3.55;;
14933;SDS011;7560;51.364;12.384;2023-05-24T13:32:53;8.55;;;3.25;;
14933;SDS011;7560;51.364;12.384;2023-05-24T13:37:57;12.05;;;3.58;;
14933;SDS011;7560;51.364;12.384;2023-05-24T13:42:58;8.82;;;3.65;;
14933;SDS011;7560;51.364;12.384;2023-05-24T13:48:00;7.88;;;3.67;;
14933;SDS011;7560;51.364;12.384;2023-05-24T13:53:06;9.02;;;4.10;;
14933;SDS011;7560;51.364;12.384;2023-05-24T13:58:08;11.45;;;3.70;;
14933;SDS011;7560;51.364;12.384;2023-05-24T14:03:10;11.70;;;3.97;;
14933;SDS011;7560;51.364;12.384;2023-05-24T14:08:13;7.78;;;3.30;;
14933;SDS011;7560;51.364;12.384;2023-05-24T14:13:15;8.80;;;3.63;;
14933;SDS011;7560;51.364;12.384;2023-05-24T14:18:37;6.68;;;3.00;;
14933;SDS011;7560;51.364;12.384;2023-05-24T14:23:38;8.18;;;3.10;;
14933;SDS011;7560;51.364;12.384;2023-05-24T14:28:40;6.35;;;2.53;;
14933;SDS011;7560;51.364;12.384;2023-05-24T14:33:42;6.55;;;2.83;;
14933;SDS011;7560;51.364;12.384;2023-05-24T14:38:43;5.72;;;2.58;;
14933;SDS011;7560;51.364;12.384;2023-05-24T14:43:45;7.50;;;1.92;;
14933;SDS011;7560;51.364;12.384;2023-05-24T14:48:47;6.85;;;1.77;;
14933;SDS011;7560;51.364;12.384;2023-05-24T14:53:49;5.15;;;2.10;;
14933;SDS011;7560;51.364;12.384;2023-05-24T14:58:52;8.02;;;2.30;;
14933;SDS011;7560;51.364;12.384;2023-05-24T15:03:55;6.28;;;2.30;;
14933;SDS011;7560;51.364;12.384;2023-05-24T15:09:01;4.63;;;2.17;;
14933;SDS011;7560;51.364;12.384;2023-05-24T15:14:04;3.65;;;1.80;;
14933;SDS011;7560;51.364;12.384;2023-05-24T15:19:06;3.55;;;1.80;;
14933;SDS011;7560;51.364;12.384;2023-05-24T15:24:10;4.68;;;2.13;;
14933;SDS011;7560;51.364;12.384;2023-05-24T15:29:13;6.22;;;2.20;;
14933;SDS011;7560;51.364;12.384;2023-05-24T15:34:19;3.40;;;1.77;;
14933;SDS011;7560;51.364;12.384;2023-05-24T15:39:24;7.13;;;2.40;;
14933;SDS011;7560;51.364;12.384;2023-05-24T15:44:26;5.63;;;2.40;;
14933;SDS011;7560;51.364;12.384;2023-05-24T15:49:28;5.53;;;2.20;;
14933;SDS011;7560;51.364;12.384;2023-05-24T15:54:29;4.72;;;2.33;;
14933;SDS011;7560;51.364;12.384;2023-05-24T15:59:32;4.78;;;2.25;;
14933;SDS011;7560;51.364;12.384;2023-05-24T16:04:42;4.53;;;2.22;;
14933;SDS011;7560;51.364;12.384;2023-05-24T16:09:44;7.45;;;2.47;;
14933;SDS011;7560;51.364;12.384;2023-05-24T16:14:47;5.45;;;2.35;;
14933;SDS011;7560;51.364;12.384;2023-05-24T16:19:48;6.55;;;2.60;;
14933;SDS011;7560;51.364;12.384;2023-05-24T16:24:52;14.57;;;5.65;;
14933;SDS011;7560;51.364;12.384;2023-05-24T16:29:54;9.68;;;4.25;;
14933;SDS011;7560;51.364;12.384;2023-05-24T16:34:56;11.18;;;4.90;;
14933;SDS011;7560;51.364;12.384;2023-05-24T16:39:58;9.48;;;3.38;;
14933;SDS011;7560;51.364;12.384;2023-05-24T16:45:00;10.52;;;3.63;;
14933;SDS011;7560;51.364;12.384;2023-05-24T16:50:03;8.85;;;3.08;;
14933;SDS011;7560;51.364;12.384;2023-05-24T16:55:05;4.90;;;2.42;;
14933;SDS011;7560;51.364;12.384;2023-05-24T17:00:07;6.15;;;2.20;;
14933;SDS011;7560;51.364;12.384;2023-05-24T17:05:09;5.00;;;2.33;;
14933;SDS011;7560;51.364;12.384;2023-05-24T17:10:11;5.25;;;2.75;;
14933;SDS011;7560;51.364;12.384;2023-05-24T17:15:13;5.88;;;2.45;;
14933;SDS011;7560;51.364;12.384;2023-05-24T17:20:15;9.35;;;2.13;;
14933;SDS011;7560;51.364;12.384;2023-05-24T17:25:17;7.43;;;2.40;;
14933;SDS011;7560;51.364;12.384;2023-05-24T17:30:19;4.95;;;2.50;;
14933;SDS011;7560;51.364;12.384;2023-05-24T17:35:21;6.68;;;2.35;;
14933;SDS011;7560;51.364;12.384;2023-05-24T17:40:23;6.50;;;2.30;;
14933;SDS011;7560;51.364;12.384;2023-05-24T17:45:25;6.10;;;2.70;;
14933;SDS011;7560;51.364;12.384;2023-05-24T17:50:27;5.45;;;2.67;;
14933;SDS011;7560;51.364;12.384;2023-05-24T17:55:29;8.85;;;2.95;;
14933;SDS011;7560;51.364;12.384;2023-05-24T18:00:31;7.10;;;2.63;;
14933;SDS011;7560;51.364;12.384;2023-05-24T18:05:32;7.28;;;2.85;;
14933;SDS011;7560;51.364;12.384;2023-05-24T18:10:34;9.43;;;3.92;;
14933;SDS011;7560;51.364;12.384;2023-05-24T18:15:36;8.13;;;3.13;;
14933;SDS011;7560;51.364;12.384;2023-05-24T18:20:38;7.45;;;3.60;;
14933;SDS011;7560;51.364;12.384;2023-05-24T18:25:40;7.47;;;4.03;;
14933;SDS011;7560;51.364;12.384;2023-05-24T18:30:44;9.68;;;3.63;;
14933;SDS011;7560;51.364;12.384;2023-05-24T18:35:46;14.43;;;7.38;;
14933;SDS011;7560;51.364;12.384;2023-05-24T18:40:47;5.47;;;3.13;;
14933;SDS011;7560;51.364;12.384;2023-05-24T18:45:49;6.63;;;3.50;;
14933;SDS011;7560;51.364;12.384;2023-05-24T18:50:52;14.15;;;6.22;;
14933;SDS011;7560;51.364;12.384;2023-05-24T18:55:54;7.93;;;4.15;;
14933;SDS011;7560;51.364;12.384;2023-05-24T19:00:55;7.10;;;3.50;;
14933;SDS011;7560;51.364;12.384;2023-05-24T19:05:57;7.57;;;3.05;;
14933;SDS011;7560;51.364;12.384;2023-05-24T19:10:59;5.65;;;3.70;;
14933;SDS011;7560;51.364;12.384;2023-05-24T19:16:01;9.52;;;4.68;;
14933;SDS011;7560;51.364;12.384;2023-05-24T19:21:03;6.53;;;3.72;;
14933;SDS011;7560;51.364;12.384;2023-05-24T19:26:05;5.50;;;3.60;;
14933;SDS011;7560;51.364;12.384;2023-05-24T19:31:07;7.40;;;3.75;;
14933;SDS011;7560;51.364;12.384;2023-05-24T19:36:09;5.88;;;3.50;;
14933;SDS011;7560;51.364;12.384;2023-05-24T19:41:11;8.70;;;4.03;;
14933;SDS011;7560;51.364;12.384;2023-05-24T19:46:12;5.90;;;3.60;;
14933;SDS011;7560;51.364;12.384;2023-05-24T19:51:14;10.02;;;3.92;;
14933;SDS011;7560;51.364;12.384;2023-05-24T19:56:17;8.63;;;4.57;;
14933;SDS011;7560;51.364;12.384;2023-05-24T20:01:19;9.50;;;4.80;;
14933;SDS011;7560;51.364;12.384;2023-05-24T20:06:21;7.90;;;4.38;;
14933;SDS011;7560;51.364;12.384;2023-05-24T20:11:23;6.35;;;4.47;;
14933;SDS011;7560;51.364;12.384;2023-05-24T20:16:25;7.20;;;4.38;;
14933;SDS011;7560;51.364;12.384;2023-05-24T20:21:27;7.53;;;4.57;;
14933;SDS011;7560;51.364;12.384;2023-05-24T20:26:29;9.10;;;4.72;;
14933;SDS011;7560;51.364;12.384;2023-05-24T20:31:33;6.18;;;4.00;;
14933;SDS011;7560;51.364;12.384;2023-05-24T20:36:35;10.40;;;4.50;;
14933;SDS011;7560;51.364;12.384;2023-05-24T20:41:36;8.13;;;4.30;;
14933;SDS011;7560;51.364;12.384;2023-05-24T20:46:38;9.98;;;5.05;;
14933;SDS011;7560;51.364;12.384;2023-05-24T20:51:41;8.48;;;4.47;;
14933;SDS011;7560;51.364;12.384;2023-05-24T20:56:43;6.63;;;4.93;;
14933;SDS011;7560;51.364;12.384;2023-05-24T21:01:44;8.65;;;4.90;;
14933;SDS011;7560;51.364;12.384;2023-05-24T21:06:46;8.02;;;5.05;;
14933;SDS011;7560;51.364;12.384;2023-05-24T21:11:48;8.98;;;5.38;;
14933;SDS011;7560;51.364;12.384;2023-05-24T21:16:50;9.73;;;5.13;;
14933;SDS011;7560;51.364;12.384;2023-05-24T21:21:51;7.65;;;5.07;;
14933;SDS011;7560;51.364;12.384;2023-05-24T21:26:53;8.10;;;5.30;;
14933;SDS011;7560;51.364;12.384;2023-05-24T21:31:55;10.88;;;5.03;;
14933;SDS011;7560;51.364;12.384;2023-05-24T21:36:57;8.93;;;5.40;;
14933;SDS011;7560;51.364;12.384;2023-05-24T21:41:59;7.72;;;4.75;;
14933;SDS011;7560;51.364;12.384;2023-05-24T21:47:02;10.10;;;5.10;;
14933;SDS011;7560;51.364;12.384;2023-05-24T21:52:04;10.68;;;5.20;;
14933;SDS011;7560;51.364;12.384;2023-05-24T21:57:06;10.00;;;5.32;;
14933;SDS011;7560;51.364;12.384;2023-05-24T22:02:07;10.63;;;5.07;;
14933;SDS011;7560;51.364;12.384;2023-05-24T22:07:09;9.52;;;4.55;;
14933;SDS011;7560;51.364;12.384;2023-05-24T22:12:11;8.75;;;4.75;;
14933;SDS011;7560;51.364;12.384;2023-05-24T22:17:13;8.70;;;4.55;;
14933;SDS011;7560;51.364;12.384;2023-05-24T22:22:16;6.70;;;4.72;;
14933;SDS011;7560;51.364;12.384;2023-05-24T22:27:19;8.57;;;4.50;;
14933;SDS011;7560;51.364;12.384;2023-05-24T22:32:21;8.98;;;5.15;;
14933;SDS011;7560;51.364;12.384;2023-05-24T22:37:23;11.27;;;4.88;;
14933;SDS011;7560;51.364;12.384;2023-05-24T22:42:25;10.63;;;5.07;;
14933;SDS011;7560;51.364;12.384;2023-05-24T22:47:26;9.48;;;5.22;;
14933;SDS011;7560;51.364;12.384;2023-05-24T22:52:29;11.15;;;5.15;;
14933;SDS011;7560;51.364;12.384;2023-05-24T22:57:33;8.98;;;4.95;;
14933;SDS011;7560;51.364;12.384;2023-05-24T23:02:35;10.25;;;4.90;;
14933;SDS011;7560;51.364;12.384;2023-05-24T23:07:38;9.63;;;4.90;;
14933;SDS011;7560;51.364;12.384;2023-05-24T23:12:40;9.00;;;4.63;;
14933;SDS011;7560;51.364;12.384;2023-05-24T23:17:42;8.65;;;5.15;;
14933;SDS011;7560;51.364;12.384;2023-05-24T23:22:44;8.38;;;4.93;;
14933;SDS011;7560;51.364;12.384;2023-05-24T23:27:46;13.07;;;5.15;;
14933;SDS011;7560;51.364;12.384;2023-05-24T23:32:48;14.35;;;4.82;;
14933;SDS011;7560;51.364;12.384;2023-05-24T23:37:50;8.75;;;5.57;;
14933;SDS011;7560;51.364;12.384;2023-05-24T23:42:53;10.15;;;5.22;;
14933;SDS011;7560;51.364;12.384;2023-05-24T23:47:56;9.90;;;5.43;;
14933;SDS011;7560;51.364;12.384;2023-05-24T23:52:58;8.48;;;5.38;;
14933;SDS011;7560;51.364;12.384;2023-05-24T23:58:00;9.32;;;5.30;;
